Latest Weather Observations for Mallacoota

IDV60801

Issued at 10:42 pm EST Tuesday 23 July 2024 (issued every 10 minutes, with the page automatically refreshed every 10 minutes)

About weather observations | Map of weather stations | Latest weather observations for VIC | Other Formats
Station Details ID: 084084 Name: MALLACOOTA Lat: -37.60 Lon: 149.73 Height: 22.0 m
Data from the previous 72 hours. | See also: Recent months at Mallacoota
Date/Time
EST
Temp
°C
App
Temp
°C
Dew
Point
°C
Rel
Hum
%
Delta-T
°C
Wind Press
QNH
hPa
Press
MSL
hPa
Rain since
9am
mm
Dir  Spd
km/h
Gust
km/h
Spd
kts
Gust
kts
23/10:30pm 10.6 - - - - NW 13 17 7 9 1022.1 1022.2 0.0
23/10:00pm 10.7 - - - - NW 13 15 7 8 1022.1 1022.2 0.0
23/09:30pm 11.1 - - - - NW 11 15 6 8 1022.2 1022.3 0.0
23/09:00pm 11.4 - - - - NW 11 17 6 9 1022.2 1022.3 0.0
23/08:30pm 11.5 - - - - NW 11 17 6 9 1022.2 1022.3 0.0
23/08:00pm 11.4 - - - - NW 11 15 6 8 1022.2 1022.3 0.0
23/07:30pm 11.5 - - - - NW 11 15 6 8 1022.2 1022.3 0.0
23/07:00pm 11.2 - - - - NNW 11 13 6 7 1022.2 1022.3 0.0
23/06:30pm 11.5 - - - - NNW 11 13 6 7 1022.2 1022.3 0.0
23/06:00pm 11.6 - - - - WNW 9 13 5 7 1022.2 1022.3 0.0
23/05:30pm 11.3 - - - - W 7 9 4 5 1022.2 1022.3 0.0
23/05:00pm 12.6 - - - - WSW 4 7 2 4 1022.1 1022.2 0.0
23/04:30pm 14.0 - - - - SW 4 6 2 3 1022.1 1022.2 0.0
23/04:00pm 15.5 - - - - E 4 6 2 3 1022.0 1022.1 0.0
23/03:30pm 16.1 - - - - ENE 6 7 3 4 1022.2 1022.3 0.0
23/03:00pm 15.7 - - - - ENE 7 13 4 7 1022.4 1022.5 0.0
23/02:30pm 17.0 - - - - ENE 7 9 4 5 1022.1 1022.2 0.0
23/02:00pm 19.4 - - - - N 11 20 6 11 1022.1 1022.2 0.0
23/01:30pm 19.5 - - - - NNW 11 17 6 9 1022.4 1022.5 0.0
23/01:00pm 18.9 - - - - NNW 11 19 6 10 1022.7 1022.8 0.0
23/12:30pm 18.2 - - - - NNW 11 15 6 8 1023.1 1023.2 0.0
23/12:00pm 17.4 - - - - NNW 9 15 5 8 1023.6 1023.7 0.0
23/11:30am 17.0 - - - - NNW 13 19 7 10 1024.0 1024.1 0.0
23/11:00am 15.9 - - - - NNW 13 20 7 11 1024.3 1024.4 0.0
23/10:30am 15.2 - - - - NNW 11 19 6 10 1024.8 1024.9 0.0
23/10:00am 13.3 - - - - NNW 13 22 7 12 1024.9 1025.0 0.0
23/09:30am 12.3 - - - - NNW 15 20 8 11 1025.0 1025.1 0.0
23/09:00am 11.3 - - - - NW 15 22 8 12 1024.9 1025.0 0.0
23/08:30am 10.3 - - - - NW 17 20 9 11 1024.7 1024.8 0.0
23/08:00am 9.5 - - - - NW 17 20 9 11 1024.6 1024.7 0.0
23/07:30am 9.3 - - - - NW 17 20 9 11 1024.4 1024.5 0.0
23/07:00am 9.4 - - - - NW 19 22 10 12 1024.2 1024.3 0.0
23/06:30am 9.4 - - - - NW 17 22 9 12 1024.0 1024.1 0.0
23/06:00am 9.0 - - - - NW 17 20 9 11 1023.8 1023.9 0.0
23/05:30am 8.7 - - - - WNW 17 19 9 10 1023.4 1023.5 0.0
23/05:00am 9.0 - - - - NW 17 20 9 11 1023.3 1023.4 0.0
23/04:30am 8.6 - - - - NW 17 20 9 11 1023.4 1023.5 0.0
23/04:00am 8.6 - - - - NW 15 19 8 10 1023.5 1023.6 0.0
23/03:30am 9.0 - - - - NW 15 17 8 9 1023.5 1023.6 0.0
23/03:00am 9.2 - - - - NW 17 20 9 11 1023.5 1023.6 0.0
23/02:30am 8.7 - - - - NW 15 19 8 10 1023.6 1023.7 0.0
23/02:00am 8.1 - - - - NW 13 15 7 8 1023.6 1023.7 0.0
23/01:30am 8.7 - - - - NW 13 17 7 9 1023.7 1023.8 0.0
23/01:00am 8.6 - - - - NW 11 17 6 9 1023.7 1023.8 0.0
23/12:30am 7.8 - - - - NW 11 13 6 7 1023.7 1023.8 0.0
23/12:00am 8.2 - - - - NW 9 13 5 7 1023.8 1023.9 0.0
 
Date/Time
EST
Temp
°C
App
Temp
°C
Dew
Point
°C
Rel
Hum
%
Delta-T
°C
Wind Press
QNH
hPa
Press
MSL
hPa
Rain since
9am
mm
Dir  Spd
km/h
Gust
km/h
Spd
kts
Gust
kts
22/11:30pm 8.0 - - - - NW 7 9 4 5 1024.0 1024.1 0.0
22/11:00pm 8.9 - - - - NW 11 13 6 7 1024.0 1024.1 0.0
22/10:30pm 9.5 - - - - NNW 9 13 5 7 1024.0 1024.1 0.0
22/10:00pm 10.3 - - - - NW 13 15 7 8 1023.7 1023.8 0.0
22/09:30pm 10.1 - - - - NW 9 13 5 7 1023.7 1023.8 0.0
22/09:00pm 10.4 - - - - WNW 9 13 5 7 1023.5 1023.6 0.0
22/08:30pm 11.7 - - - - WNW 9 11 5 6 1023.3 1023.4 0.0
22/08:00pm 13.1 - - - - NW 11 13 6 7 1023.1 1023.2 0.0
22/07:30pm 13.4 - - - - NW 11 15 6 8 1022.8 1022.9 0.0
22/07:00pm 12.3 - - - - NW 9 13 5 7 1022.6 1022.7 0.0
22/06:30pm 11.6 - - - - NW 7 9 4 5 1022.4 1022.5 0.0
22/06:00pm 11.2 - - - - WNW 7 9 4 5 1022.1 1022.2 0.0
22/05:30pm 11.8 - - - - NW 7 9 4 5 1021.6 1021.7 0.0
22/05:00pm 13.1 - - - - NNE 6 7 3 4 1021.5 1021.5 0.0
22/04:30pm 16.0 - - - - NE 6 7 3 4 1021.5 1021.5 0.0
22/04:00pm 17.4 - - - - NE 2 6 1 3 1021.3 1021.3 0.0
22/03:30pm 17.4 - - - - NE 9 13 5 7 1021.0 1021.0 0.0
22/03:00pm 18.3 - - - - NE 7 9 4 5 1021.0 1021.0 0.0
22/02:30pm 19.6 - - - - NNW 6 9 3 5 1021.0 1021.0 0.0
22/02:00pm 18.8 - - - - N 7 9 4 5 1020.8 1020.8 0.0
22/01:30pm 18.0 - - - - WNW 6 9 3 5 1020.9 1020.9 0.0
22/01:00pm 18.1 - - - - NNW 11 19 6 10 1021.1 1021.1 0.0
22/12:30pm 17.5 - - - - NNW 9 15 5 8 1021.5 1021.5 0.0
22/12:00pm 17.6 - - - - N 13 19 7 10 1022.0 1022.1 0.0
22/11:30am 17.2 - - - - N 11 19 6 10 1022.4 1022.5 0.0
22/11:00am 16.7 - - - - NNW 11 17 6 9 1022.5 1022.6 0.0
22/10:30am 15.5 - - - - NNW 15 20 8 11 1022.5 1022.6 0.0
22/10:00am 14.0 - - - - NNW 13 19 7 10 1022.6 1022.7 0.0
22/09:30am 12.6 - - - - NNW 15 20 8 11 1022.3 1022.4 0.0
22/09:00am 12.4 - - - - NNW 13 17 7 9 1022.2 1022.3 0.0
22/08:30am 11.6 - - - - NNW 11 17 6 9 1021.9 1022.0 0.0
22/08:00am 10.0 - - - - NW 13 17 7 9 1021.7 1021.8 0.0
22/07:30am 9.0 - - - - NW 11 17 6 9 1021.4 1021.4 0.0
22/07:00am 8.8 - - - - NW 11 17 6 9 1021.1 1021.1 0.0
22/06:30am 8.6 - - - - NW 13 17 7 9 1020.9 1020.9 0.0
22/06:00am 8.5 - - - - NW 11 17 6 9 1020.6 1020.6 0.0
22/05:30am 8.7 - - - - NW 13 17 7 9 1020.3 1020.3 0.0
22/05:00am 8.3 - - - - NW 13 17 7 9 1020.1 1020.1 0.0
22/04:30am 8.7 - - - - NNW 13 15 7 8 1020.2 1020.2 0.0
22/04:00am 8.5 - - - - NNW 13 17 7 9 1020.0 1020.0 0.0
22/03:30am 9.2 - - - - NW 9 15 5 8 1020.0 1020.0 0.0
22/03:00am 9.8 - - - - NW 13 17 7 9 1020.0 1020.0 0.0
22/02:30am 9.4 - - - - NNW 11 17 6 9 1020.0 1020.0 0.0
22/02:00am 8.7 - - - - NNW 11 15 6 8 1019.7 1019.7 0.0
22/01:30am 9.1 - - - - NNW 15 17 8 9 1019.9 1019.9 0.0
22/01:00am 9.1 - - - - NW 13 17 7 9 1019.9 1019.9 0.0
22/12:30am 8.8 - - - - NNW 13 19 7 10 1019.9 1019.9 0.0
22/12:00am 8.1 - - - - NNW 13 17 7 9 1019.9 1019.9 0.0
 
Date/Time
EST
Temp
°C
App
Temp
°C
Dew
Point
°C
Rel
Hum
%
Delta-T
°C
Wind Press
QNH
hPa
Press
MSL
hPa
Rain since
9am
mm
Dir  Spd
km/h
Gust
km/h
Spd
kts
Gust
kts
21/11:30pm 7.6 - - - - NW 11 15 6 8 1020.1 1020.1 0.0
21/11:00pm 7.7 - - - - NW 11 13 6 7 1020.0 1020.0 0.0
21/10:30pm 7.9 - - - - NW 13 15 7 8 1019.8 1019.8 0.0
21/10:00pm 8.2 - - - - NW 13 17 7 9 1019.9 1019.9 0.0
21/09:30pm 7.6 - - - - NW 13 15 7 8 1019.8 1019.8 0.0
21/09:00pm 7.5 - - - - NW 11 13 6 7 1019.9 1019.9 0.0
21/08:30pm 7.6 - - - - WNW 9 13 5 7 1019.7 1019.7 0.0
21/08:00pm 7.4 - - - - WNW 9 13 5 7 1019.6 1019.6 0.0
21/07:30pm 7.8 - - - - WNW 9 11 5 6 1019.3 1019.3 0.0
21/07:00pm 8.8 - - - - NNW 9 11 5 6 1019.0 1019.0 0.0
21/06:30pm 9.3 - - - - NW 9 11 5 6 1019.0 1019.0 0.0
21/06:00pm 8.9 - - - - NW 7 9 4 5 1018.6 1018.6 0.0
21/05:30pm 9.4 - - - - WNW 6 7 3 4 1018.1 1018.1 0.0
21/05:00pm 11.4 - - - - WSW 6 11 3 6 1017.9 1017.9 0.0
21/04:30pm 13.1 - - - - WSW 9 15 5 8 1017.6 1017.6 0.0
21/04:00pm 13.7 - - - - SW 13 20 7 11 1017.1 1017.1 0.0
21/03:30pm 14.0 - - - - SW 17 28 9 15 1016.8 1016.8 0.0
21/03:00pm 14.2 - - - - SW 17 32 9 17 1016.6 1016.6 0.0
21/02:30pm 14.2 - - - - SW 19 35 10 19 1016.4 1016.4 0.0
21/02:00pm 14.2 - - - - SW 19 33 10 18 1016.2 1016.2 0.0
21/01:30pm 14.1 - - - - SW 19 30 10 16 1016.2 1016.2 0.0
21/01:00pm 13.5 - - - - WSW 17 30 9 16 1016.3 1016.3 0.0
21/12:30pm 13.2 - - - - SW 22 39 12 21 1016.4 1016.4 0.0
21/12:00pm 12.7 - - - - SW 22 41 12 22 1016.5 1016.5 0.0
21/11:30am 12.4 - - - - SW 24 39 13 21 1016.6 1016.6 0.0
21/11:00am 12.7 - - - - WSW 24 39 13 21 1016.4 1016.4 0.0
21/10:30am 12.4 - - - - WSW 20 35 11 19 1015.9 1015.9 0.0
21/10:00am 11.8 - - - - WSW 19 33 10 18 1015.7 1015.7 0.0
21/09:30am 11.2 - - - - WSW 20 35 11 19 1015.5 1015.5 0.0
21/09:00am 10.6 - - - - WSW 24 50 13 27 1015.0 1015.0 6.6
21/08:30am 9.8 - - - - WSW 24 39 13 21 1014.7 1014.7 6.6
21/08:00am 9.2 - - - - WSW 20 37 11 20 1014.3 1014.3 6.6
21/07:30am 9.6 - - - - WSW 24 41 13 22 1013.7 1013.7 6.6
21/07:00am 10.0 - - - - WSW 19 30 10 16 1013.2 1013.2 6.4
21/06:30am 10.0 - - - - WSW 20 35 11 19 1012.3 1012.3 6.4
21/06:00am 10.0 - - - - WSW 22 41 12 22 1011.6 1011.6 6.0
21/05:30am 10.1 - - - - WSW 24 46 13 25 1010.7 1010.7 5.8
21/05:00am 9.9 - - - - WSW 26 50 14 27 1009.8 1009.8 5.4
21/04:55am 9.9 - - - - WSW 28 50 15 27 1009.6 1009.6 5.2
21/04:30am 9.8 - - - - WSW 26 50 14 27 1008.8 1008.8 5.0
21/04:16am 10.0 - - - - WSW 28 48 15 26 1008.6 1008.6 4.6
21/04:00am 9.8 - - - - WSW 26 52 14 28 1008.3 1008.3 4.6
21/03:30am 10.4 - - - - WSW 28 56 15 30 1007.9 1007.9 4.4
21/03:18am 10.4 - - - - WSW 28 48 15 26 1007.7 1007.7 4.2
21/03:00am 10.4 - - - - WSW 24 43 13 23 1007.4 1007.4 4.2
21/02:43am 10.2 - - - - WSW 28 54 15 29 1007.3 1007.3 4.2
21/02:30am 9.8 - - - - WSW 26 44 14 24 1007.0 1007.0 4.2
21/02:23am 9.8 - - - - WSW 28 50 15 27 1006.9 1006.9 4.2
21/02:00am 9.4 - - - - WSW 26 43 14 23 1006.3 1006.3 4.2
21/01:30am 10.0 - - - - WSW 30 48 16 26 1005.9 1005.9 3.4
21/01:00am 10.3 - - - - WSW 28 56 15 30 1005.0 1005.0 3.0
21/12:30am 10.5 - - - - WSW 32 57 17 31 1004.5 1004.5 3.0
21/12:00am 10.6 - - - - WSW 30 56 16 30 1004.5 1004.5 3.0
 
Date/Time
EST
Temp
°C
App
Temp
°C
Dew
Point
°C
Rel
Hum
%
Delta-T
°C
Wind Press
QNH
hPa
Press
MSL
hPa
Rain since
9am
mm
Dir  Spd
km/h
Gust
km/h
Spd
kts
Gust
kts
20/11:39pm 10.2 - - - - WSW 28 46 15 25 1004.3 1004.3 3.0
20/11:30pm 10.0 - - - - WSW 26 44 14 24 1004.3 1004.3 3.0
20/11:00pm 10.4 - - - - WSW 30 59 16 32 1003.5 1003.5 2.8

Other formats

Comma delimited format used in spreadsheet applications
http://www.bom.gov.au/fwo/IDV60801/IDV60801.94935.axf

JavaScript Object Notation format (JSON) in row-major order
http://www.bom.gov.au/fwo/IDV60801/IDV60801.94935.json

Data quality

Most of these data are generated automatically and are frequently updated. Quality checks on data are not normally performed. It is possible for incorrect values to appear. Refer to information at About Latest Weather Observations and please check the disclaimer before using these data.